Time;durP1;ratioP1;P1;durP2;ratioP2;P2;SDS_P1;SDS_P2;PMS_P1;PMS_P2;Temp;Humidity;BMP_temperature;BMP_pressure;BME280_temperature;BME280_humidity;BME280_pressure;Samples;Min_cycle;Max_cycle;Signal;HPM_P1;HPM_P2
2023/03/17 00:00:56;;;;;;;0.85;0.30;;;7.60;86.60;;;;;;6227722;22;20027;-89
2023/03/17 00:03:28;;;;;;;0.93;0.30;;;7.60;86.50;;;;;;6223596;22;20484;-85
2023/03/17 00:06:15;;;;;;;1.23;0.40;;;7.60;86.60;;;;;;6200727;22;20388;-87
2023/03/17 00:08:45;;;;;;;1.08;0.45;;;7.60;86.60;;;;;;6224716;22;20028;-86
2023/03/17 00:11:17;;;;;;;1.25;0.50;;;7.50;86.60;;;;;;6196469;23;20103;-86
2023/03/17 00:13:45;;;;;;;1.10;0.35;;;7.50;86.50;;;;;;6194604;23;20338;-86
2023/03/17 00:16:17;;;;;;;1.35;0.60;;;7.50;86.60;;;;;;6218958;23;20027;-85
2023/03/17 00:18:46;;;;;;;1.77;0.65;;;7.50;86.70;;;;;;6219582;23;20461;-87
2023/03/17 00:21:29;;;;;;;1.48;0.50;;;7.40;86.70;;;;;;6198066;23;20358;-87
2023/03/17 00:23:59;;;;;;;0.70;0.40;;;7.40;86.80;;;;;;6196457;23;20401;-86
2023/03/17 00:26:27;;;;;;;1.15;0.40;;;7.30;86.90;;;;;;6196195;23;20323;-86
2023/03/17 00:28:54;;;;;;;0.63;0.30;;;7.30;87.00;;;;;;6195850;23;20024;-87
2023/03/17 00:31:28;;;;;;;1.07;0.40;;;7.20;87.10;;;;;;6197139;23;20023;-87
2023/03/17 00:33:57;;;;;;;1.38;0.50;;;7.20;87.20;;;;;;6221238;23;20047;-87
2023/03/17 00:36:31;;;;;;;0.88;0.22;;;7.10;87.30;;;;;;6197571;23;20020;-88
2023/03/17 00:39:04;;;;;;;0.68;0.30;;;7.10;87.40;;;;;;6197458;23;20356;-87
2023/03/17 00:41:40;;;;;;;1.48;0.35;;;7.10;87.40;;;;;;6220969;23;20031;-87
2023/03/17 00:44:08;;;;;;;0.77;0.25;;;7.10;87.50;;;;;;6196120;23;20024;-88
2023/03/17 00:46:40;;;;;;;0.93;0.20;;;7.00;87.60;;;;;;6196506;23;20017;-88
2023/03/17 00:49:17;;;;;;;0.70;0.40;;;7.00;87.60;;;;;;6196523;23;20107;-87
2023/03/17 00:51:47;;;;;;;0.93;0.28;;;7.00;87.70;;;;;;6195358;23;20014;-87
2023/03/17 00:54:19;;;;;;;0.80;0.20;;;7.00;87.80;;;;;;6196657;23;20012;-88
2023/03/17 00:56:50;;;;;;;0.90;0.20;;;7.00;87.90;;;;;;6196552;23;20020;-88
2023/03/17 00:59:29;;;;;;;0.85;0.30;;;6.90;87.90;;;;;;6196796;23;20012;-87
2023/03/17 01:01:56;;;;;;;2.67;0.43;;;6.90;87.90;;;;;;6196295;23;20016;-87
2023/03/17 01:04:29;;;;;;;0.57;0.30;;;6.90;88.10;;;;;;6195969;23;20020;-88
2023/03/17 01:07:00;;;;;;;0.43;0.30;;;6.80;88.20;;;;;;6196548;23;20020;-88
2023/03/17 01:09:29;;;;;;;0.57;0.20;;;6.80;88.30;;;;;;6202504;22;20019;-88
2023/03/17 01:11:56;;;;;;;0.80;0.30;;;6.70;88.40;;;;;;6225841;22;20038;-88
2023/03/17 01:14:26;;;;;;;1.38;0.30;;;6.70;88.50;;;;;;6250916;22;20016;-88
2023/03/17 01:16:58;;;;;;;0.85;0.30;;;6.70;88.60;;;;;;6201971;22;20069;-88
2023/03/17 01:19:26;;;;;;;0.85;0.20;;;6.60;88.60;;;;;;6225399;22;20016;-88
2023/03/17 01:21:53;;;;;;;0.65;0.30;;;6.60;88.70;;;;;;6225511;22;20452;-87
2023/03/17 01:24:20;;;;;;;1.17;0.47;;;6.60;88.70;;;;;;6226049;22;20020;-87
2023/03/17 01:26:48;;;;;;;0.70;0.30;;;6.60;88.70;;;;;;6225803;22;20182;-88
2023/03/17 01:29:16;;;;;;;0.95;0.30;;;6.60;88.80;;;;;;6225944;22;20012;-88
2023/03/17 01:31:46;;;;;;;0.90;0.30;;;6.60;88.80;;;;;;6225375;22;20024;-88
2023/03/17 01:34:16;;;;;;;1.00;0.32;;;6.60;88.80;;;;;;6201562;22;20023;-88
2023/03/17 01:36:44;;;;;;;1.05;0.40;;;6.60;88.90;;;;;;6226105;22;20501;-87
2023/03/17 01:39:13;;;;;;;0.90;0.40;;;6.60;89.00;;;;;;6225074;22;20020;-87
2023/03/17 01:41:40;;;;;;;1.05;0.40;;;6.50;88.90;;;;;;6225742;22;20118;-87
2023/03/17 01:44:15;;;;;;;1.20;0.30;;;6.50;89.00;;;;;;6225273;22;20358;-87
2023/03/17 01:46:46;;;;;;;1.15;0.40;;;6.50;89.10;;;;;;6225205;22;20050;-88
2023/03/17 01:49:31;;;;;;;0.85;0.40;;;6.50;89.80;;;;;;6225435;22;20023;-87
2023/03/17 01:52:16;;;;;;;1.20;0.40;;;6.50;89.90;;;;;;6225357;22;20095;-87
2023/03/17 01:54:58;;;;;;;1.17;0.30;;;6.40;89.30;;;;;;6225704;22;20054;-87
2023/03/17 01:57:36;;;;;;;0.70;0.30;;;6.40;89.40;;;;;;6226054;22;20026;-87
2023/03/17 02:00:07;;;;;;;1.35;0.32;;;6.30;89.50;;;;;;6226037;22;20031;-88
2023/03/17 02:02:43;;;;;;;0.75;0.30;;;6.30;89.60;;;;;;6226980;22;20069;-87
2023/03/17 02:05:15;;;;;;;1.55;0.30;;;6.30;89.70;;;;;;6225514;22;20015;-87
2023/03/17 02:07:46;;;;;;;1.25;0.40;;;6.30;89.70;;;;;;6250747;22;20023;-87
2023/03/17 02:10:15;;;;;;;1.02;0.43;;;6.20;89.80;;;;;;6209718;23;20024;-87
2023/03/17 02:12:44;;;;;;;0.95;0.30;;;6.20;89.80;;;;;;6195309;23;20020;-87
2023/03/17 02:15:16;;;;;;;1.00;0.32;;;6.20;90.00;;;;;;6196077;23;20052;-87
2023/03/17 02:17:46;;;;;;;1.25;0.40;;;6.20;90.00;;;;;;6172484;23;20017;-87
2023/03/17 02:20:16;;;;;;;1.10;0.40;;;6.10;90.00;;;;;;6195709;23;20106;-87
2023/03/17 02:22:49;;;;;;;0.80;0.30;;;6.10;90.10;;;;;;6219801;23;20102;-87
2023/03/17 02:25:20;;;;;;;1.00;0.25;;;6.00;90.10;;;;;;6196136;23;20012;-88
2023/03/17 02:27:53;;;;;;;0.70;0.20;;;6.00;90.20;;;;;;6195186;23;20066;-88
2023/03/17 02:30:23;;;;;;;0.70;0.30;;;5.90;90.20;;;;;;6195718;23;20027;-88
2023/03/17 02:32:50;;;;;;;1.25;0.40;;;5.90;90.30;;;;;;6195033;23;20035;-87
2023/03/17 02:35:33;;;;;;;0.82;0.20;;;5.80;90.30;;;;;;6172132;23;20020;-87
2023/03/17 02:38:00;;;;;;;1.27;0.40;;;5.80;90.40;;;;;;6220004;23;20024;-88
2023/03/17 02:40:28;;;;;;;1.10;0.45;;;5.80;90.40;;;;;;6195273;23;20047;-88
2023/03/17 02:42:56;;;;;;;0.70;0.28;;;5.80;90.40;;;;;;6171284;23;20020;-88
2023/03/17 02:45:30;;;;;;;1.10;0.30;;;5.80;90.40;;;;;;6200817;23;20016;-87
2023/03/17 02:47:59;;;;;;;1.33;0.40;;;5.80;90.40;;;;;;6195416;23;20020;-88
2023/03/17 02:50:28;;;;;;;1.10;0.40;;;5.80;90.40;;;;;;6194750;23;20112;-88
2023/03/17 02:52:58;;;;;;;1.67;0.40;;;5.80;90.40;;;;;;6194018;23;20024;-87
2023/03/17 02:55:25;;;;;;;1.10;0.38;;;5.80;90.50;;;;;;6195422;23;20024;-88
2023/03/17 02:57:55;;;;;;;1.30;0.50;;;5.80;90.50;;;;;;6195317;23;20050;-87
2023/03/17 03:00:23;;;;;;;1.13;0.40;;;5.80;90.50;;;;;;6195412;23;20046;-88
2023/03/17 03:02:52;;;;;;;1.70;0.25;;;5.80;90.60;;;;;;6220905;23;20107;-88
2023/03/17 03:05:23;;;;;;;0.82;0.32;;;5.70;90.60;;;;;;6196321;23;20035;-89
2023/03/17 03:07:57;;;;;;;0.95;0.43;;;5.70;90.60;;;;;;6196560;23;20020;-88
2023/03/17 03:10:27;;;;;;;1.50;0.40;;;5.70;90.60;;;;;;6215008;22;20024;-88
2023/03/17 03:13:00;;;;;;;1.30;0.50;;;5.70;90.60;;;;;;6226436;22;20280;-88
2023/03/17 03:15:30;;;;;;;0.75;0.30;;;5.70;90.60;;;;;;6225004;22;20327;-88
2023/03/17 03:18:00;;;;;;;0.85;0.40;;;5.70;90.60;;;;;;6225979;22;20023;-88
2023/03/17 03:20:28;;;;;;;2.75;0.40;;;5.70;90.60;;;;;;6225417;22;20364;-88
2023/03/17 03:22:55;;;;;;;1.17;0.45;;;5.80;90.70;;;;;;6225809;22;20015;-88
2023/03/17 03:25:26;;;;;;;0.80;0.32;;;5.80;90.60;;;;;;6226526;22;20019;-88
2023/03/17 03:27:54;;;;;;;1.35;0.40;;;5.80;90.60;;;;;;6225425;22;20446;-87
2023/03/17 03:30:21;;;;;;;0.85;0.30;;;5.80;90.60;;;;;;6225941;22;20020;-87
2023/03/17 03:32:49;;;;;;;1.33;0.30;;;5.90;90.60;;;;;;6226918;22;20434;-87
2023/03/17 03:35:16;;;;;;;1.00;0.50;;;5.90;90.60;;;;;;6251425;22;20430;-87
2023/03/17 03:37:46;;;;;;;1.10;0.30;;;5.90;90.60;;;;;;6226257;22;20035;-87
2023/03/17 03:40:14;;;;;;;1.10;0.30;;;6.00;90.60;;;;;;6249556;22;20079;-87
2023/03/17 03:42:41;;;;;;;1.30;0.30;;;6.00;90.60;;;;;;6225207;22;20438;-87
2023/03/17 03:45:10;;;;;;;1.08;0.30;;;6.00;90.60;;;;;;6225246;22;20020;-87
2023/03/17 03:47:37;;;;;;;1.45;0.57;;;6.00;90.60;;;;;;6225025;22;20016;-87
2023/03/17 03:50:08;;;;;;;0.88;0.43;;;6.00;90.80;;;;;;6249755;22;20027;-87
2023/03/17 03:52:41;;;;;;;5.75;0.93;;;6.00;90.60;;;;;;6225824;22;20442;-87
2023/03/17 03:55:08;;;;;;;1.05;0.57;;;6.00;90.60;;;;;;6226906;22;20020;-88
2023/03/17 03:57:44;;;;;;;0.98;0.50;;;6.00;90.60;;;;;;6228804;22;20027;-87
2023/03/17 04:00:13;;;;;;;1.30;0.50;;;6.00;90.60;;;;;;6252323;22;20026;-87
2023/03/17 04:02:48;;;;;;;0.82;0.40;;;6.00;90.60;;;;;;6227550;22;20034;-88
2023/03/17 04:05:18;;;;;;;1.05;0.52;;;6.00;90.70;;;;;;6227179;22;20065;-88
2023/03/17 04:07:49;;;;;;;1.13;0.60;;;6.00;90.70;;;;;;6227057;22;20026;-88
2023/03/17 04:10:20;;;;;;;0.98;0.40;;;6.00;90.70;;;;;;6213363;23;20446;-88
2023/03/17 04:12:47;;;;;;;1.02;0.40;;;6.00;90.70;;;;;;6196943;23;20095;-88
2023/03/17 04:15:19;;;;;;;1.30;0.63;;;6.00;90.70;;;;;;6197433;23;20027;-88
2023/03/17 04:17:47;;;;;;;1.17;0.43;;;6.00;90.70;;;;;;6196777;23;20016;-89
2023/03/17 04:20:17;;;;;;;2.00;0.32;;;6.00;90.80;;;;;;6197131;23;20454;-88
2023/03/17 04:22:45;;;;;;;0.88;0.40;;;6.00;90.80;;;;;;6197241;23;20111;-87
2023/03/17 04:25:16;;;;;;;0.75;0.40;;;5.90;90.80;;;;;;6197014;23;20016;-87
2023/03/17 04:27:44;;;;;;;1.20;0.47;;;5.90;90.80;;;;;;6197180;23;20016;-88
2023/03/17 04:30:15;;;;;;;0.75;0.20;;;5.90;90.90;;;;;;6222071;23;20070;-88
2023/03/17 04:32:43;;;;;;;0.63;0.30;;;5.80;90.90;;;;;;6197237;23;20012;-88
2023/03/17 04:35:14;;;;;;;0.95;0.40;;;5.80;91.00;;;;;;6196692;23;20020;-87
2023/03/17 04:37:41;;;;;;;0.95;0.30;;;5.70;91.00;;;;;;6196418;23;20158;-87
2023/03/17 04:40:10;;;;;;;1.23;0.40;;;5.70;91.10;;;;;;6196548;23;20020;-86
2023/03/17 04:42:38;;;;;;;1.02;0.50;;;5.70;91.10;;;;;;6221399;23;20171;-86
2023/03/17 04:45:09;;;;;;;2.15;0.50;;;5.60;91.10;;;;;;6195397;23;20016;-86
2023/03/17 04:47:39;;;;;;;1.77;0.40;;;5.60;91.20;;;;;;6196083;23;20046;-86
2023/03/17 04:50:07;;;;;;;0.75;0.32;;;5.50;91.20;;;;;;6195408;23;20412;-85
2023/03/17 04:52:35;;;;;;;0.82;0.22;;;5.50;91.20;;;;;;6195680;23;20016;-85
2023/03/17 04:55:04;;;;;;;0.90;0.30;;;5.50;91.30;;;;;;6195491;23;20024;-86
2023/03/17 04:57:34;;;;;;;0.73;0.40;;;5.50;91.30;;;;;;6170690;23;20026;-86
2023/03/17 05:00:06;;;;;;;1.52;0.57;;;5.50;91.40;;;;;;6195706;23;20024;-85
2023/03/17 05:02:33;;;;;;;1.45;0.60;;;5.40;91.40;;;;;;6172052;23;20027;-86
2023/03/17 05:05:01;;;;;;;1.42;0.52;;;5.40;91.40;;;;;;6195930;23;20095;-86
2023/03/17 05:07:31;;;;;;;1.05;0.30;;;5.40;91.40;;;;;;6146931;23;20016;-86
2023/03/17 05:10:03;;;;;;;0.77;0.38;;;5.40;91.40;;;;;;6230486;22;20020;-86
2023/03/17 05:12:34;;;;;;;1.00;0.40;;;5.40;91.40;;;;;;6227021;22;20016;-86
2023/03/17 05:15:04;;;;;;;1.13;0.40;;;5.50;91.40;;;;;;6225952;22;20082;-86
2023/03/17 05:17:38;;;;;;;1.38;0.50;;;5.50;91.40;;;;;;6225264;22;20069;-85
2023/03/17 05:20:09;;;;;;;1.02;0.50;;;5.40;91.40;;;;;;6250417;22;20020;-86
2023/03/17 05:22:36;;;;;;;1.10;0.40;;;5.40;91.40;;;;;;6225591;22;20106;-86
2023/03/17 05:25:05;;;;;;;1.00;0.40;;;5.40;91.40;;;;;;6225575;22;20011;-86
2023/03/17 05:27:36;;;;;;;1.50;0.40;;;5.40;91.40;;;;;;6225963;22;20019;-86
2023/03/17 05:30:07;;;;;;;0.88;0.40;;;5.40;91.40;;;;;;6225842;22;20566;-86
2023/03/17 05:32:35;;;;;;;1.17;0.40;;;5.40;91.50;;;;;;6226066;22;20052;-87
2023/03/17 05:35:05;;;;;;;0.80;0.40;;;5.40;91.50;;;;;;6250741;22;20024;-86
2023/03/17 05:37:52;;;;;;;1.42;0.43;;;5.40;91.50;;;;;;6201622;22;20114;-88
2023/03/17 05:40:30;;;;;;;;;;;;;;;;;;;;;
2023/03/17 05:43:07;;;;;;;1.02;0.40;;;5.30;91.60;;;;;;6252026;22;20047;-89
2023/03/17 05:45:34;;;;;;;0.68;0.25;;;5.30;91.60;;;;;;6226682;22;20019;-89
2023/03/17 05:48:02;;;;;;;0.57;0.32;;;5.20;91.60;;;;;;6226269;22;20042;-89
2023/03/17 05:50:29;;;;;;;2.20;0.55;;;5.20;91.70;;;;;;6226154;22;20457;-89
2023/03/17 05:52:57;;;;;;;0.82;0.35;;;5.20;91.70;;;;;;6226293;22;20039;-89
2023/03/17 05:55:29;;;;;;;0.88;0.30;;;5.20;91.70;;;;;;6227558;22;20066;-89
2023/03/17 05:58:00;;;;;;;2.17;0.40;;;5.20;91.80;;;;;;6226833;22;20019;-89
2023/03/17 06:00:30;;;;;;;1.30;0.60;;;5.20;91.80;;;;;;6250968;22;20073;-89
2023/03/17 06:03:02;;;;;;;1.25;0.40;;;5.20;91.80;;;;;;6226087;22;20016;-89
2023/03/17 06:05:30;;;;;;;1.42;0.45;;;5.20;91.80;;;;;;6251133;22;20008;-89
2023/03/17 06:08:01;;;;;;;1.20;0.55;;;5.20;91.80;;;;;;6225210;22;20024;-87
2023/03/17 06:10:28;;;;;;;0.70;0.30;;;5.20;91.80;;;;;;6208309;23;20106;-88
2023/03/17 06:12:56;;;;;;;0.73;0.30;;;5.20;91.80;;;;;;6194794;23;20016;-87
2023/03/17 06:15:29;;;;;;;1.42;0.50;;;5.30;91.80;;;;;;6196268;23;20024;-89
2023/03/17 06:17:58;;;;;;;1.10;0.50;;;5.30;91.70;;;;;;6195734;23;20085;-89
2023/03/17 06:20:31;;;;;;;0.90;0.30;;;5.30;91.70;;;;;;6195317;23;20023;-89
2023/03/17 06:23:01;;;;;;;0.98;0.50;;;5.30;91.70;;;;;;6172144;23;20024;-88
2023/03/17 06:25:33;;;;;;;0.50;0.40;;;5.30;91.70;;;;;;6195803;23;20020;-89
2023/03/17 06:28:04;;;;;;;0.77;0.40;;;5.30;91.70;;;;;;6196451;23;20070;-89
2023/03/17 06:30:32;;;;;;;0.77;0.50;;;5.30;91.70;;;;;;6196086;23;20095;-89
2023/03/17 06:33:01;;;;;;;0.82;0.40;;;5.30;91.80;;;;;;6195989;23;20066;-89
2023/03/17 06:35:29;;;;;;;1.10;0.30;;;5.30;91.80;;;;;;6195738;23;20034;-89
2023/03/17 06:37:59;;;;;;;0.47;0.30;;;5.30;91.80;;;;;;6196632;23;20111;-89
2023/03/17 06:40:30;;;;;;;1.05;0.40;;;5.30;91.80;;;;;;6195767;23;20023;-89
2023/03/17 06:42:58;;;;;;;1.27;0.50;;;5.40;91.80;;;;;;6195935;23;20039;-89
2023/03/17 06:45:31;;;;;;;0.80;0.20;;;5.40;91.80;;;;;;6220453;23;20044;-89
2023/03/17 06:48:01;;;;;;;1.20;0.40;;;5.40;91.80;;;;;;6197036;23;20018;-87
2023/03/17 06:50:29;;;;;;;1.38;0.38;;;5.40;91.70;;;;;;6194949;23;20020;-87
2023/03/17 06:52:58;;;;;;;1.20;0.40;;;5.50;91.70;;;;;;6194514;23;20043;-87
2023/03/17 06:55:26;;;;;;;0.75;0.35;;;5.50;91.70;;;;;;6194554;23;20486;-87
2023/03/17 06:57:53;;;;;;;0.60;0.25;;;5.60;91.60;;;;;;6193551;23;20020;-86
2023/03/17 07:00:21;;;;;;;1.60;0.50;;;5.70;91.80;;;;;;6194190;23;20024;-87
2023/03/17 07:02:49;;;;;;;1.45;0.40;;;5.80;91.50;;;;;;6170371;23;20023;-87
2023/03/17 07:05:19;;;;;;;1.10;0.40;;;5.90;91.40;;;;;;6194769;23;20438;-87
2023/03/17 07:07:46;;;;;;;0.95;0.30;;;6.00;91.30;;;;;;6194732;23;20016;-87
2023/03/17 07:10:14;;;;;;;1.52;0.43;;;6.10;91.20;;;;;;6206718;22;20442;-88
2023/03/17 07:12:44;;;;;;;1.60;0.50;;;6.30;91.10;;;;;;6199513;22;20019;-88
2023/03/17 07:15:12;;;;;;;1.35;0.40;;;6.40;91.00;;;;;;6224586;22;20023;-86
2023/03/17 07:17:45;;;;;;;1.52;0.50;;;6.60;90.90;;;;;;6249708;22;20038;-86
2023/03/17 07:20:13;;;;;;;0.82;0.40;;;6.70;91.00;;;;;;6250191;22;20075;-89
2023/03/17 07:22:40;;;;;;;1.67;0.60;;;6.90;90.70;;;;;;6225289;22;20047;-89
2023/03/17 07:25:14;;;;;;;0.90;0.40;;;7.00;90.60;;;;;;6225399;22;20016;-88
2023/03/17 07:27:41;;;;;;;1.05;0.35;;;7.10;90.50;;;;;;6225376;22;20062;-88
2023/03/17 07:30:09;;;;;;;1.88;0.40;;;7.30;90.40;;;;;;6226383;22;20020;-88
2023/03/17 07:32:37;;;;;;;1.95;0.40;;;7.40;90.30;;;;;;6227190;22;20488;-88
2023/03/17 07:35:06;;;;;;;1.63;0.45;;;7.50;90.30;;;;;;6226188;22;20050;-86
2023/03/17 07:37:34;;;;;;;1.13;0.43;;;7.60;90.10;;;;;;6250592;22;20027;-85
2023/03/17 07:40:01;;;;;;;1.60;0.40;;;7.70;90.00;;;;;;6201842;22;20020;-86
2023/03/17 07:42:31;;;;;;;1.83;0.50;;;7.80;90.00;;;;;;6226149;22;20103;-87
2023/03/17 07:44:58;;;;;;;1.20;0.40;;;7.90;89.90;;;;;;6201684;22;20016;-86
2023/03/17 07:47:25;;;;;;;1.27;0.60;;;8.00;89.70;;;;;;6201338;22;20016;-86
2023/03/17 07:49:55;;;;;;;1.40;0.50;;;8.10;89.60;;;;;;6202860;22;20024;-87
2023/03/17 07:52:22;;;;;;;1.17;0.38;;;8.20;89.50;;;;;;6250917;22;20106;-85
2023/03/17 07:54:50;;;;;;;1.85;0.50;;;8.30;89.40;;;;;;6225880;22;20023;-86
2023/03/17 07:57:18;;;;;;;1.48;0.40;;;8.30;89.20;;;;;;6227846;22;20345;-90
2023/03/17 07:59:47;;;;;;;0.77;0.30;;;8.40;89.20;;;;;;6204107;22;20020;-90
2023/03/17 08:02:16;;;;;;;1.27;0.43;;;8.50;89.00;;;;;;6252783;22;20034;-89
2023/03/17 08:04:47;;;;;;;1.02;0.50;;;8.50;88.90;;;;;;6227803;22;20385;-90
2023/03/17 08:07:14;;;;;;;1.08;0.47;;;8.50;88.80;;;;;;6202876;22;20147;-88
2023/03/17 08:09:41;;;;;;;1.95;0.40;;;8.60;88.80;;;;;;6228208;22;20039;-90
2023/03/17 08:12:09;;;;;;;1.35;0.60;;;8.60;88.70;;;;;;6252157;22;20025;-88
2023/03/17 08:14:36;;;;;;;1.45;0.50;;;8.70;88.70;;;;;;6201702;22;20024;-88
2023/03/17 08:17:04;;;;;;;1.75;0.55;;;8.70;88.50;;;;;;6228087;22;20030;-90
2023/03/17 08:19:31;;;;;;;1.75;0.50;;;8.80;88.50;;;;;;6202504;22;20019;-88
2023/03/17 08:21:58;;;;;;;2.05;0.60;;;8.80;88.40;;;;;;6201065;22;20050;-87
2023/03/17 08:24:26;;;;;;;1.10;0.40;;;8.90;88.30;;;;;;6251319;22;20023;-86
2023/03/17 08:26:55;;;;;;;1.33;0.60;;;8.90;88.10;;;;;;6227206;22;20025;-86
2023/03/17 08:29:25;;;;;;;0.73;0.32;;;9.10;88.10;;;;;;6226549;22;20015;-86
2023/03/17 08:31:52;;;;;;;1.25;0.40;;;9.10;87.90;;;;;;6226044;22;20026;-87
2023/03/17 08:34:20;;;;;;;0.93;0.40;;;9.20;87.80;;;;;;6225721;22;20111;-87
2023/03/17 08:36:47;;;;;;;1.13;0.70;;;9.30;87.60;;;;;;6225174;22;20020;-87
2023/03/17 08:39:14;;;;;;;1.73;0.47;;;9.30;87.50;;;;;;6225178;22;20027;-86
2023/03/17 08:41:42;;;;;;;0.93;0.40;;;9.40;87.40;;;;;;6225639;22;20016;-87
2023/03/17 08:44:13;;;;;;;1.60;0.50;;;9.40;87.40;;;;;;6225928;22;20050;-87
2023/03/17 08:46:40;;;;;;;0.70;0.38;;;9.40;87.40;;;;;;6225836;22;20020;-89
2023/03/17 08:49:08;;;;;;;0.98;0.40;;;9.50;87.40;;;;;;6201990;22;20062;-89
2023/03/17 08:51:36;;;;;;;1.00;0.45;;;9.50;87.40;;;;;;6226209;22;20106;-87
2023/03/17 08:54:05;;;;;;;1.90;0.60;;;9.50;87.40;;;;;;6200296;22;20069;-87
2023/03/17 08:56:33;;;;;;;0.90;0.40;;;9.50;87.40;;;;;;6225498;22;20016;-87
2023/03/17 08:59:00;;;;;;;1.23;0.50;;;9.60;87.40;;;;;;6225717;22;20042;-87
2023/03/17 09:01:28;;;;;;;1.38;0.43;;;9.60;87.20;;;;;;6201106;22;20050;-87
2023/03/17 09:03:58;;;;;;;0.98;0.40;;;9.70;87.10;;;;;;6225488;22;20030;-87
2023/03/17 09:06:26;;;;;;;2.10;0.52;;;9.70;86.90;;;;;;6201419;22;20024;-87
2023/03/17 09:08:56;;;;;;;0.70;0.40;;;9.80;86.90;;;;;;6225734;22;20047;-87
2023/03/17 09:11:26;;;;;;;1.02;0.52;;;9.80;86.70;;;;;;6225740;22;20035;-88
2023/03/17 09:13:54;;;;;;;0.88;0.40;;;9.90;86.50;;;;;;6227703;22;20024;-88
2023/03/17 09:16:22;;;;;;;2.13;0.50;;;10.00;86.50;;;;;;6235129;22;20523;-86
2023/03/17 09:18:50;;;;;;;1.17;0.55;;;10.10;86.30;;;;;;6225947;22;20453;-87
2023/03/17 09:21:18;;;;;;;0.98;0.40;;;10.10;86.20;;;;;;6228979;22;20023;-87
2023/03/17 09:23:48;;;;;;;1.35;0.60;;;10.20;86.10;;;;;;6225465;22;20073;-86
2023/03/17 09:26:15;;;;;;;1.08;0.50;;;10.30;86.00;;;;;;6225052;22;20094;-87
2023/03/17 09:28:45;;;;;;;0.82;0.43;;;10.30;85.90;;;;;;6226308;22;20050;-87
2023/03/17 09:31:15;;;;;;;1.27;0.80;;;10.40;86.50;;;;;;6225622;22;20023;-87
2023/03/17 09:33:46;;;;;;;0.88;0.40;;;10.50;85.80;;;;;;6225825;22;20058;-86
2023/03/17 09:36:13;;;;;;;2.13;0.40;;;10.60;85.60;;;;;;6200182;22;20015;-86
2023/03/17 09:38:40;;;;;;;1.17;0.32;;;10.60;85.50;;;;;;6224569;22;20015;-86
2023/03/17 09:41:19;;;;;;;1.27;0.30;;;10.70;85.40;;;;;;6224847;22;20019;-86
2023/03/17 09:44:07;;;;;;;1.60;0.43;;;10.80;85.10;;;;;;6250262;22;20023;-86
2023/03/17 09:47:09;;;;;;;0.82;0.35;;;10.90;85.00;;;;;;6224768;22;20034;-86
2023/03/17 09:49:50;;;;;;;1.50;0.60;;;11.00;84.70;;;;;;6250161;22;20020;-86
2023/03/17 09:52:35;;;;;;;2.22;0.32;;;11.10;84.50;;;;;;6249632;22;20019;-86
2023/03/17 09:55:07;;;;;;;1.48;0.60;;;11.30;84.20;;;;;;6224576;22;20094;-87
2023/03/17 09:57:37;;;;;;;1.15;0.55;;;11.40;84.00;;;;;;6199698;22;20026;-86
2023/03/17 10:00:13;;;;;;;1.40;0.50;;;11.60;83.70;;;;;;6224530;22;20405;-87
2023/03/17 10:02:42;;;;;;;1.48;0.80;;;11.80;83.40;;;;;;6224860;22;20024;-87
2023/03/17 10:05:12;;;;;;;1.58;0.40;;;12.00;83.10;;;;;;6224957;22;20073;-86
2023/03/17 10:07:54;;;;;;;1.52;0.75;;;12.20;82.80;;;;;;6249799;22;20047;-87
2023/03/17 10:10:25;;;;;;;;;;;12.40;82.40;;;;;;6225411;22;20020;-87
2023/03/17 10:13:12;;;;;;;1.45;0.57;;;12.50;82.30;;;;;;6249745;22;19915;-87
2023/03/17 10:16:04;;;;;;;1.15;0.47;;;12.60;82.10;;;;;;6224497;22;20054;-87
2023/03/17 10:18:47;;;;;;;1.40;0.63;;;12.70;81.90;;;;;;6225436;22;20019;-89
2023/03/17 10:21:19;;;;;;;1.98;0.60;;;12.80;81.70;;;;;;6225715;22;20032;-87
2023/03/17 10:23:47;;;;;;;;;;;12.80;81.70;;;;;;6225474;22;20388;-87
2023/03/17 10:26:20;;;;;;;1.83;0.57;;;12.80;81.70;;;;;;6249733;22;20276;-86
2023/03/17 10:28:47;;;;;;;1.70;0.65;;;12.80;81.70;;;;;;6224917;22;20074;-88
2023/03/17 10:31:16;;;;;;;1.33;0.60;;;12.90;81.30;;;;;;6224368;22;20015;-87
2023/03/17 10:33:48;;;;;;;1.67;0.63;;;13.00;81.40;;;;;;6224833;22;20031;-88
2023/03/17 10:36:30;;;;;;;1.45;0.52;;;13.10;81.30;;;;;;6225380;22;20023;-88
2023/03/17 10:39:04;;;;;;;1.58;0.70;;;13.20;81.10;;;;;;6224532;22;20073;-86
2023/03/17 10:41:35;;;;;;;1.85;0.68;;;13.30;80.90;;;;;;6224940;22;20469;-87
2023/03/17 10:44:08;;;;;;;1.83;0.73;;;13.30;80.70;;;;;;6224520;22;20349;-87
2023/03/17 10:46:38;;;;;;;1.45;0.73;;;13.50;79.70;;;;;;6248717;22;20051;-86
2023/03/17 10:49:09;;;;;;;1.83;0.60;;;13.60;79.80;;;;;;6224787;22;20043;-87
2023/03/17 10:51:39;;;;;;;2.70;0.98;;;13.70;79.70;;;;;;6249239;22;20065;-87
2023/03/17 10:54:10;;;;;;;1.85;0.82;;;13.80;79.40;;;;;;6249357;22;20034;-86
2023/03/17 10:56:41;;;;;;;2.65;0.85;;;13.80;79.30;;;;;;6224152;22;20073;-87
2023/03/17 10:59:19;;;;;;;1.88;0.90;;;13.90;78.90;;;;;;6224965;22;20038;-87
2023/03/17 11:01:52;;;;;;;3.20;1.30;;;14.00;78.80;;;;;;6249668;22;20015;-87
2023/03/17 11:04:29;;;;;;;3.00;1.15;;;14.10;77.30;;;;;;6224254;22;20457;-87
2023/03/17 11:06:57;;;;;;;5.05;1.52;;;14.20;77.00;;;;;;6249696;22;20027;-87
2023/03/17 11:09:32;;;;;;;4.45;1.80;;;14.20;75.80;;;;;;6224048;22;20015;-86
2023/03/17 11:12:20;;;;;;;3.17;1.40;;;14.20;74.90;;;;;;6223733;22;20020;-86
2023/03/17 11:14:48;;;;;;;3.63;1.35;;;14.40;75.30;;;;;;6223702;22;20011;-86
2023/03/17 11:17:52;;;;;;;2.90;1.50;;;14.50;75.30;;;;;;6224023;22;20074;-86
2023/03/17 11:20:36;;;;;;;4.18;1.42;;;14.60;73.90;;;;;;6188179;22;20083;-88
2023/03/17 11:23:46;;;;;;;3.28;1.30;;;14.80;73.90;;;;;;6225433;22;20450;-87
2023/03/17 11:26:32;;;;;;;6.40;1.92;;;14.90;73.80;;;;;;6249763;22;20019;-86
2023/03/17 11:29:25;;;;;;;4.88;1.90;;;15.00;72.60;;;;;;6249040;22;20016;-87
2023/03/17 11:32:10;;;;;;;6.45;2.30;;;15.10;72.20;;;;;;6249649;22;20018;-87
2023/03/17 11:35:02;;;;;;;4.55;1.92;;;15.20;71.10;;;;;;6249175;22;20019;-86
2023/03/17 11:37:49;;;;;;;4.45;2.20;;;15.20;70.90;;;;;;6249030;22;20039;-87
2023/03/17 11:40:32;;;;;;;2.92;1.50;;;15.20;70.90;;;;;;6224197;22;20027;-87
2023/03/17 11:43:09;;;;;;;3.78;1.80;;;15.20;70.90;;;;;;6224055;22;20070;-87
2023/03/17 11:45:54;;;;;;;5.07;1.98;;;15.20;71.10;;;;;;6224493;22;20016;-87
2023/03/17 11:48:42;;;;;;;3.25;1.50;;;15.20;70.60;;;;;;6224690;22;20012;-87
2023/03/17 11:51:17;;;;;;;4.32;2.65;;;15.20;70.80;;;;;;6225087;22;20337;-88
2023/03/17 11:53:57;;;;;;;3.10;1.55;;;15.20;70.30;;;;;;6224607;22;20026;-87
2023/03/17 11:56:30;;;;;;;3.80;1.50;;;15.20;70.60;;;;;;6248832;22;20020;-86
2023/03/17 11:59:05;;;;;;;3.67;1.40;;;15.20;70.70;;;;;;6248185;22;20070;-92
2023/03/17 12:01:53;;;;;;;3.90;1.27;;;15.20;70.70;;;;;;6223680;22;20081;-87
2023/03/17 12:04:46;;;;;;;2.85;1.30;;;15.30;71.10;;;;;;6224030;22;20019;-87
2023/03/17 12:07:24;;;;;;;3.20;1.20;;;15.40;71.20;;;;;;6223947;22;20023;-87
2023/03/17 12:10:20;;;;;;;2.03;0.85;;;15.40;71.20;;;;;;6224166;22;20019;-87
2023/03/17 12:13:08;;;;;;;3.65;1.15;;;15.60;71.30;;;;;;6249065;22;20446;-87
2023/03/17 12:15:40;;;;;;;4.10;1.58;;;15.80;71.00;;;;;;6223445;22;20046;-87
2023/03/17 12:18:24;;;;;;;4.10;1.42;;;15.80;70.40;;;;;;6225169;22;20408;-87
2023/03/17 12:21:10;;;;;;;3.05;1.58;;;15.80;70.50;;;;;;6250917;22;20054;-87
2023/03/17 12:23:51;;;;;;;4.25;1.98;;;15.80;70.40;;;;;;6251336;22;20024;-87
2023/03/17 12:26:38;;;;;;;5.00;1.85;;;15.90;70.20;;;;;;6225324;22;20023;-84
2023/03/17 12:29:41;;;;;;;3.47;1.40;;;15.80;69.70;;;;;;6250418;22;20016;-86
2023/03/17 12:32:25;;;;;;;3.38;1.67;;;15.80;70.20;;;;;;6225807;22;20069;-87
2023/03/17 12:35:15;;;;;;;4.07;1.53;;;15.90;70.00;;;;;;6226121;22;20077;-87
2023/03/17 12:37:46;;;;;;;2.97;1.27;;;15.90;69.60;;;;;;6250753;22;20285;-87
2023/03/17 12:40:19;;;;;;;3.33;1.38;;;15.90;69.60;;;;;;6226387;22;20110;-88
2023/03/17 12:43:04;;;;;;;3.78;1.17;;;16.00;69.50;;;;;;6251102;22;20035;-87
2023/03/17 12:46:27;;;;;;;3.55;1.40;;;16.10;69.50;;;;;;6250627;22;20392;-88
2023/03/17 12:49:13;;;;;;;2.88;1.58;;;16.20;69.20;;;;;;6154570;23;20028;-88
2023/03/17 12:52:18;;;;;;;3.40;1.10;;;16.30;69.20;;;;;;6250748;22;20081;-88
2023/03/17 12:54:50;;;;;;;2.35;1.20;;;16.40;69.00;;;;;;6160991;22;20330;-87
2023/03/17 12:57:21;;;;;;;4.03;1.70;;;16.40;68.80;;;;;;6224813;22;20069;-87
2023/03/17 12:59:57;;;;;;;3.30;1.10;;;16.50;68.60;;;;;;6250405;22;20011;-88
2023/03/17 13:02:37;;;;;;;2.67;1.00;;;16.50;68.80;;;;;;6225388;22;20350;-86
2023/03/17 13:05:11;;;;;;;2.17;0.80;;;16.60;69.10;;;;;;6225859;22;20342;-88
2023/03/17 13:07:50;;;;;;;2.92;1.30;;;16.70;69.10;;;;;;6225829;22;20026;-84
2023/03/17 13:10:38;;;;;;;3.40;1.40;;;16.80;69.10;;;;;;6225039;22;20095;-85
2023/03/17 13:13:34;;;;;;;3.05;1.42;;;16.90;68.20;;;;;;6225487;22;20015;-87
2023/03/17 13:16:24;;;;;;;2.75;1.30;;;16.90;68.40;;;;;;6250742;22;20019;-87
2023/03/17 13:19:30;;;;;;;2.50;1.10;;;16.90;68.80;;;;;;6225719;22;20349;-89
2023/03/17 13:22:20;;;;;;;2.40;1.08;;;17.00;69.00;;;;;;6225269;22;20042;-87
2023/03/17 13:24:52;;;;;;;2.58;0.90;;;17.00;69.20;;;;;;6250227;22;20022;-87